Time;durP1;ratioP1;P1;durP2;ratioP2;P2;SDS_P1;SDS_P2;PMS_P1;PMS_P2;Temp;Humidity;BMP_temperature;BMP_pressure;BME280_temperature;BME280_humidity;BME280_pressure;Samples;Min_cycle;Max_cycle;Signal;HPM_P1;HPM_P2
2023/10/09 00:02:09;;;;;;;;;5.00;3.00;;;;;-143.90;100.00;76896.81;4954877;28;103983;-72
2023/10/09 00:04:40;;;;;;;;;8.50;6.00;;;;;-143.90;100.00;76909.22;4953797;28;101940;-72
2023/10/09 00:07:08;;;;;;;;;4.50;3.00;;;;;-143.90;100.00;76905.06;4946620;28;102237;-71
2023/10/09 00:09:47;;;;;;;;;5.25;3.00;;;;;-143.90;100.00;76909.22;4948741;28;102012;-72
2023/10/09 00:12:22;;;;;;;;;2.00;2.00;;;;;-143.90;100.00;76923.69;4944360;28;103920;-72
2023/10/09 00:14:50;;;;;;;;;5.00;5.00;;;;;-143.90;100.00;76925.75;4956797;28;104729;-73
2023/10/09 00:17:17;;;;;;;;;1.75;1.75;;;;;-143.90;100.00;76913.34;4958034;28;101967;-72
2023/10/09 00:19:49;;;;;;;;;2.00;2.00;;;;;-143.90;100.00;76905.06;4960908;28;102956;-72
2023/10/09 00:22:38;;;;;;;;;6.00;5.00;;;;;-143.90;100.00;76896.81;4957501;28;109058;-72
2023/10/09 00:25:10;;;;;;;;;5.00;5.00;;;;;-143.90;100.00;76896.81;4947461;28;102641;-72
2023/10/09 00:27:42;;;;;;;;;1.50;1.50;;;;;-143.90;100.00;76892.66;4946359;28;102277;-72
2023/10/09 00:30:18;;;;;;;;;1.00;1.00;;;;;-143.90;100.00;76898.88;4958911;28;102044;-72
2023/10/09 00:33:07;;;;;;;;;3.00;3.00;;;;;-143.90;100.00;76892.66;4950201;28;108812;-72
2023/10/09 00:35:46;;;;;;;;;3.00;2.75;;;;;-143.90;100.00;76880.25;4950629;28;102587;-72
2023/10/09 00:38:24;;;;;;;;;1.25;1.25;;;;;-143.90;100.00;76871.97;4959425;28;102180;-72
2023/10/09 00:41:09;;;;;;;;;1.75;1.00;;;;;-143.90;100.00;76857.50;4948631;28;103376;-72
2023/10/09 00:43:37;;;;;;;;;5.25;5.00;;;;;-143.90;100.00;76838.88;4954632;28;104150;-72
2023/10/09 00:46:23;;;;;;;;;10.50;8.50;;;;;-143.90;100.00;76830.63;4948609;28;102427;-72
2023/10/09 00:48:57;;;;;;;;;6.50;4.50;;;;;-143.90;100.00;76826.47;4944698;28;102428;-73
2023/10/09 00:51:25;;;;;;;;;6.00;4.50;;;;;-143.90;100.00;76834.75;4951262;28;102646;-72
2023/10/09 00:53:58;;;;;;;;;4.50;3.00;;;;;-143.90;100.00;76822.34;4954515;28;104000;-72
2023/10/09 00:59:09;;;;;;;;;12.50;10.00;;;;;-143.90;100.00;76809.94;4953842;28;102487;-72
2023/10/09 01:01:40;;;;;;;;;10.50;9.00;;;;;-143.90;100.00;76801.66;4941397;28;102345;-72
2023/10/09 01:04:10;;;;;;;;;15.75;10.50;;;;;-143.90;100.00;76816.13;4955283;28;104163;-72
2023/10/09 01:06:44;;;;;;;;;15.75;10.00;;;;;-143.90;100.00;76822.34;4952688;28;102224;-72
2023/10/09 01:09:13;;;;;;;;;11.00;7.00;;;;;-143.90;100.00;76822.34;4945667;28;102594;-72
2023/10/09 01:14:26;;;;;;;;;5.00;2.75;;;;;-143.90;100.00;76818.22;4955675;28;109129;-72
2023/10/09 01:16:55;;;;;;;;;3.75;3.00;;;;;-143.90;100.00;76814.06;4954193;28;102513;-71
2023/10/09 01:19:24;;;;;;;;;1.75;1.75;;;;;-143.90;100.00;76818.22;4952960;28;102052;-72
2023/10/09 01:21:51;;;;;;;;;5.75;4.00;;;;;-143.90;100.00;76818.22;4959307;28;102498;-73
2023/10/09 01:24:22;;;;;;;;;3.00;3.00;;;;;-143.90;100.00;76809.94;4957438;28;104280;-72
2023/10/09 01:26:49;;;;;;;;;3.00;3.00;;;;;-143.90;100.00;76816.13;4959313;28;102175;-71
2023/10/09 01:29:21;;;;;;;;;5.00;3.00;;;;;-143.90;100.00;76805.78;4956137;28;102253;-72
2023/10/09 01:31:55;;;;;;;;;2.75;2.00;;;;;-143.90;100.00;76805.78;4961978;28;102158;-71
2023/10/09 01:37:28;;;;;;;;;3.50;3.50;;;;;-143.90;100.00;76793.38;4951657;28;102400;-72
2023/10/09 01:40:22;;;;;;;;;1.25;0.50;;;;;-143.90;100.00;76789.25;4950624;28;106087;-73
2023/10/09 01:42:46;;;;;;;;;3.00;2.00;;;;;-143.90;100.00;76793.38;4957876;28;102317;-72
2023/10/09 01:47:51;;;;;;;;;4.50;4.50;;;;;-143.90;100.00;76791.31;4956480;28;102430;-72
2023/10/09 01:50:20;;;;;;;;;6.25;6.00;;;;;-143.90;100.00;76778.91;4957642;28;102357;-73
2023/10/09 01:52:47;;;;;;;;;10.50;8.00;;;;;-143.90;100.00;76762.38;4959559;28;102204;-71
2023/10/09 01:55:39;;;;;;;;;6.00;5.25;;;;;-143.90;100.00;76758.22;4958564;28;108692;-72
2023/10/09 01:58:24;;;;;;;;;7.50;5.00;;;;;-143.90;100.00;76760.28;4953463;28;102132;-71
2023/10/09 02:00:55;;;;;;;;;5.75;3.00;;;;;-143.90;100.00;76747.88;4956342;28;101985;-72
2023/10/09 02:03:29;;;;;;;;;2.00;2.00;;;;;-143.90;100.00;76735.47;4951590;28;102303;-71
2023/10/09 02:06:17;;;;;;;;;3.00;3.00;;;;;-143.90;100.00;76725.13;4962484;28;104325;-72
2023/10/09 02:08:49;;;;;;;;;3.00;2.00;;;;;-143.90;100.00;76706.53;4952615;28;102159;-72
2023/10/09 02:11:35;;;;;;;;;7.25;5.75;;;;;-143.90;100.00;76689.97;4960875;28;102895;-72
2023/10/09 02:14:20;;;;;;;;;7.00;6.00;;;;;-143.90;100.00;76685.84;4950585;28;102104;-71
2023/10/09 02:17:24;;;;;;;;;5.25;5.00;;;;;-143.90;100.00;76698.25;4957617;28;108809;-71
2023/10/09 02:19:45;;;;;;;;;5.50;5.00;;;;;-143.90;100.00;76677.56;4951901;28;103576;-71
2023/10/09 02:22:12;;;;;;;;;6.00;5.00;;;;;-143.90;100.00;76671.38;4957594;28;102282;-72
2023/10/09 02:24:50;;;;;;;;;6.25;5.50;;;;;-143.90;100.00;76665.16;4961032;28;102552;-72
2023/10/09 02:27:36;;;;;;;;;5.25;4.00;;;;;-143.90;100.00;76661.03;4956786;28;109437;-72
2023/10/09 02:30:18;;;;;;;;;7.50;5.00;;;;;-143.90;100.00;76656.88;4957885;28;102470;-72
2023/10/09 02:32:49;;;;;;;;;5.00;2.50;;;;;-143.90;100.00;76656.88;4956075;28;102494;-72
2023/10/09 02:35:28;;;;;;;;;5.00;3.00;;;;;-143.90;100.00;76665.16;4954407;28;102628;-72
2023/10/09 02:37:57;;;;;;;;;3.00;1.00;;;;;-143.90;100.00;76665.16;4953648;28;108895;-73
2023/10/09 02:40:40;;;;;;;;;2.25;2.00;;;;;-143.90;100.00;76656.88;4958203;28;102513;-71
2023/10/09 02:43:13;;;;;;;;;3.50;3.00;;;;;-143.90;100.00;76640.34;4954919;28;102254;-71
2023/10/09 02:45:50;;;;;;;;;4.00;2.50;;;;;-143.90;100.00;76638.28;4958612;28;102392;-72
2023/10/09 02:48:24;;;;;;;;;5.50;4.00;;;;;-143.90;100.00;76630.00;4954644;28;108704;-72
2023/10/09 02:50:51;;;;;;;;;5.75;5.75;;;;;-143.90;100.00;76623.78;4959694;28;102395;-72
2023/10/09 02:53:28;;;;;;;;;2.00;2.00;;;;;-143.90;100.00;76632.06;4946861;28;102000;-72
2023/10/09 02:56:14;;;;;;;;;4.00;2.00;;;;;-143.90;100.00;76636.22;4955669;28;102324;-71
2023/10/09 02:58:40;;;;;;;;;14.50;11.00;;;;;-143.90;100.00;76644.47;4955314;28;104240;-72
2023/10/09 03:01:13;;;;;;;;;10.75;8.50;;;;;-143.90;100.00;76625.88;4957593;28;102255;-72
2023/10/09 03:03:46;;;;;;;;;6.75;6.75;;;;;-143.90;100.00;76623.78;4955165;28;102762;-72
2023/10/09 03:06:24;;;;;;;;;7.75;6.75;;;;;-143.90;100.00;76611.38;4958132;28;102461;-72
2023/10/09 03:08:51;;;;;;;;;4.50;3.50;;;;;-143.90;100.00;76611.38;4949451;28;109178;-73
2023/10/09 03:11:18;;;;;;;;;9.50;7.75;;;;;-143.90;100.00;76613.47;4958449;28;102546;-71
2023/10/09 03:13:45;;;;;;;;;7.50;6.25;;;;;-143.90;100.00;76594.84;4956524;28;104583;-71
2023/10/09 03:16:16;;;;;;;;;6.00;5.25;;;;;-143.90;100.00;76596.91;4958447;28;102525;-72
2023/10/09 03:18:46;;;;;;;;;9.25;7.50;;;;;-143.90;100.00;76594.84;4957216;28;104165;-69
2023/10/09 03:21:14;;;;;;;;;12.00;8.00;;;;;-143.90;100.00;76596.91;4945157;28;102604;-72
2023/10/09 03:23:41;;;;;;;;;6.50;6.00;;;;;-143.90;100.00;76603.13;4951563;28;107754;-72
2023/10/09 03:26:08;;;;;;;;;11.50;7.25;;;;;-143.90;100.00;76588.63;4953682;28;102458;-72
2023/10/09 03:28:48;;;;;;;;;10.75;10.25;;;;;-143.90;100.00;76588.63;4955946;28;104235;-73
2023/10/09 03:31:15;;;;;;;;;8.50;8.50;;;;;-143.90;100.00;76586.56;4956299;28;102641;-72
2023/10/09 03:33:41;;;;;;;;;7.25;7.00;;;;;-143.90;100.00;76584.50;4949854;28;102413;-72
2023/10/09 03:36:11;;;;;;;;;10.50;9.50;;;;;-143.90;100.00;76590.72;4955514;28;102316;-72
2023/10/09 03:38:38;;;;;;;;;9.25;6.75;;;;;-143.90;100.00;76584.50;4948733;28;103961;-72
2023/10/09 03:41:06;;;;;;;;;4.50;4.50;;;;;-143.90;100.00;76574.16;4958620;28;102606;-72
2023/10/09 03:43:37;;;;;;;;;6.50;6.50;;;;;-143.90;100.00;76559.69;4956674;28;102855;-71
2023/10/09 03:46:05;;;;;;;;;6.75;6.75;;;;;-143.90;100.00;76557.63;4958868;28;102505;-72
2023/10/09 03:48:32;;;;;;;;;5.25;3.00;;;;;-143.90;100.00;76547.28;4954164;28;104112;-73
2023/10/09 03:51:08;;;;;;;;;7.00;5.25;;;;;-143.90;100.00;76532.78;4958760;28;102404;-73
2023/10/09 03:53:36;;;;;;;;;4.50;2.75;;;;;-143.90;100.00;76532.78;4951614;28;103619;-72
2023/10/09 03:56:11;;;;;;;;;3.50;3.50;;;;;-143.90;100.00;76524.53;4954997;28;101984;-72
2023/10/09 03:58:39;;;;;;;;;9.00;6.00;;;;;-143.90;100.00;76512.13;4960474;28;103918;-72
2023/10/09 04:01:28;;;;;;;;;7.25;6.00;;;;;-143.90;100.00;76501.78;4956359;28;104685;-71
2023/10/09 04:03:59;;;;;;;;;6.00;5.00;;;;;-143.90;100.00;76503.84;4956996;28;103183;-71
2023/10/09 04:06:32;;;;;;;;;7.00;6.75;;;;;-143.90;100.00;76495.56;4947744;28;102444;-73
2023/10/09 04:12:19;;;;;;;;;4.50;3.00;;;;;-143.90;100.00;76476.97;4953960;28;102562;-72
2023/10/09 04:14:49;;;;;;;;;3.00;3.00;;;;;-143.90;100.00;76470.75;4953953;28;102377;-71
2023/10/09 04:20:24;;;;;;;;;6.50;6.50;;;;;-143.90;100.00;76472.81;4954507;28;104605;-72
2023/10/09 04:22:49;;;;;;;;;5.50;4.00;;;;;-143.90;100.00;76470.75;4947844;28;106024;-72
2023/10/09 04:25:25;;;;;;;;;6.00;4.50;;;;;-143.90;100.00;76464.56;4953372;28;103191;-72
2023/10/09 04:28:18;;;;;;;;;3.75;3.75;;;;;-143.90;100.00;76458.34;4952401;28;103558;-72
2023/10/09 04:30:55;;;;;;;;;7.00;7.00;;;;;-143.90;100.00;76443.88;4951866;28;108843;-72
2023/10/09 04:39:47;;;;;;;;;8.00;7.25;;;;;-143.90;100.00;76431.47;4955061;28;106104;-73
2023/10/09 04:44:29;;;;;;;;;11.00;9.50;;;;;-143.90;100.00;76425.25;4960652;28;102486;-71
2023/10/09 04:50:01;;;;;;;;;7.00;7.00;;;;;-143.90;100.00;76431.47;4959737;28;102366;-71
2023/10/09 05:03:04;;;;;;;;;8.25;8.25;;;;;-143.90;100.00;76417.00;4960419;28;108699;-73
2023/10/09 05:05:48;;;;;;;;;5.75;4.00;;;;;-143.90;100.00;76400.44;4958167;28;102356;-73
2023/10/09 05:08:29;;;;;;;;;3.50;3.50;;;;;-143.90;100.00;76398.38;4960652;28;102504;-73
2023/10/09 05:16:19;;;;;;;;;2.75;2.75;;;;;-143.90;100.00;76359.09;4957772;28;102478;-73
2023/10/09 05:19:08;;;;;;;;;2.25;2.00;;;;;-143.90;100.00;76346.69;4958803;28;102331;-72
2023/10/09 05:37:43;;;;;;;;;9.50;6.75;;;;;-143.90;100.00;76309.44;4937806;28;102642;-72
2023/10/09 05:42:44;;;;;;;;;8.00;7.00;;;;;-143.90;100.00;76305.31;4962809;28;102002;-73
2023/10/09 05:47:53;;;;;;;;;7.75;5.50;;;;;-143.90;100.00;76297.03;4959866;28;102041;-72
2023/10/09 06:03:25;;;;;;;;;7.50;6.50;;;;;-143.90;100.00;76323.94;4945899;28;102220;-74
2023/10/09 06:11:55;;;;;;;;;10.50;9.25;;;;;-143.90;100.00;76317.72;4961158;28;102317;-73
2023/10/09 06:14:04;;;;;;;;;8.25;8.00;;;;;-143.90;100.00;76311.53;4945039;28;102062;-73
2023/10/09 06:16:59;;;;;;;;;6.25;3.00;;;;;-143.90;100.00;76317.72;4958786;28;108733;-73
2023/10/09 06:19:27;;;;;;;;;11.25;7.75;;;;;-143.90;100.00;76307.38;4951982;28;102400;-73
2023/10/09 06:24:41;;;;;;;;;9.75;9.50;;;;;-143.90;100.00;76305.31;4953955;28;102541;-73
2023/10/09 06:27:12;;;;;;;;;7.75;7.00;;;;;-143.90;100.00;76309.44;4959558;28;104262;-74
2023/10/09 06:35:16;;;;;;;;;3.25;3.00;;;;;-143.90;100.00;76288.78;4956228;28;102856;-74
2023/10/09 06:45:57;;;;;;;;;3.50;3.50;;;;;-143.90;100.00;76276.38;4958339;28;102153;-75
2023/10/09 06:54:05;;;;;;;;;7.25;6.00;;;;;-143.90;100.00;76282.56;4956620;28;102290;-75
2023/10/09 06:59:21;;;;;;;;;5.00;3.50;;;;;-143.90;100.00;76259.81;4953091;28;104014;-75
2023/10/09 07:02:45;;;;;;;;;5.50;3.00;;;;;-143.90;100.00;76255.69;4958296;28;102695;-74
2023/10/09 07:07:16;;;;;;;;;3.25;2.50;;;;;-143.90;100.00;76261.88;4958934;28;102208;-75
2023/10/09 07:09:42;;;;;;;;;6.25;6.25;;;;;-143.90;100.00;76276.38;4949739;28;103992;-74
2023/10/09 07:12:14;;;;;;;;;7.25;6.25;;;;;-143.90;100.00;76274.28;4958770;28;102450;-75
2023/10/09 07:27:51;;;;;;;;;4.50;3.00;;;;;-143.90;100.00;76245.34;4954413;28;102294;-76
2023/10/09 07:38:10;;;;;;;;;8.00;7.25;;;;;-143.90;100.00;76222.59;4954657;28;102286;-75
2023/10/09 07:40:59;;;;;;;;;8.50;6.75;;;;;-143.90;100.00;76216.41;4958663;28;104240;-75
2023/10/09 07:46:32;;;;;;;;;6.50;4.50;;;;;-143.90;100.00;76216.41;4957848;28;102343;-75
2023/10/09 07:49:12;;;;;;;;;7.00;7.00;;;;;-143.90;100.00;76216.41;4946720;28;102622;-74
2023/10/09 07:51:43;;;;;;;;;4.75;4.75;;;;;-143.90;100.00;76222.59;4956703;28;104045;-75
2023/10/09 07:54:14;;;;;;;;;4.00;3.50;;;;;-143.90;100.00;76218.47;4951335;28;102526;-75
2023/10/09 07:56:45;;;;;;;;;6.00;4.50;;;;;-143.90;100.00;76214.31;4957340;28;102070;-75
2023/10/09 07:59:13;;;;;;;;;4.00;3.00;;;;;-143.90;100.00;76214.31;4953746;28;102925;-73
2023/10/09 08:02:02;;;;;;;;;5.50;3.75;;;;;-143.90;100.00;76212.25;4957049;28;104104;-75
2023/10/09 08:04:39;;;;;;;;;2.75;2.00;;;;;-143.90;100.00;76197.78;4951289;28;101978;-76
2023/10/09 08:07:08;;;;;;;;;3.50;3.00;;;;;-143.90;100.00;76193.66;4955914;28;102345;-74
2023/10/09 08:15:20;;;;;;;;;2.00;2.00;;;;;-143.90;100.00;76141.94;4954052;28;102529;-75
2023/10/09 08:17:59;;;;;;;;;1.75;1.75;;;;;-143.90;100.00;76135.75;4955848;28;102481;-75
2023/10/09 08:20:27;;;;;;;;;2.00;1.00;;;;;-143.90;100.00;76127.47;4952755;28;102181;-75
2023/10/09 08:22:58;;;;;;;;;3.00;2.00;;;;;-143.90;100.00;76127.47;4953444;28;108713;-75
2023/10/09 08:25:26;;;;;;;;;5.00;3.25;;;;;-143.90;100.00;76110.94;4952940;28;101870;-75
2023/10/09 08:30:48;;;;;;;;;4.00;3.00;;;;;-143.90;100.00;76071.63;4955196;28;102113;-75
2023/10/09 08:36:04;;;;;;;;;5.00;3.00;;;;;-143.90;100.00;76024.06;4960221;28;102328;-75
2023/10/09 08:38:35;;;;;;;;;3.00;3.00;;;;;-143.90;100.00;76011.66;4949144;28;102479;-74
2023/10/09 08:41:17;;;;;;;;;5.00;3.75;;;;;-143.90;100.00;75993.06;4960191;28;102540;-75
2023/10/09 08:43:50;;;;;;;;;4.00;2.25;;;;;-143.90;100.00;75970.31;4952347;28;103960;-74
2023/10/09 08:46:28;;;;;;;;;4.50;3.00;;;;;-143.90;100.00;75974.44;4953442;28;102475;-74
2023/10/09 08:48:58;;;;;;;;;3.00;3.00;;;;;-143.90;100.00;75949.63;4950305;28;102382;-74
2023/10/09 08:51:27;;;;;;;;;3.00;3.00;;;;;-143.90;100.00;75926.88;4957003;28;102568;-75
2023/10/09 08:53:54;;;;;;;;;3.00;2.00;;;;;-143.90;100.00;75926.88;4954802;28;108863;-74
2023/10/09 08:56:22;;;;;;;;;4.00;3.00;;;;;-143.90;100.00;75968.25;4953362;28;102267;-74
2023/10/09 08:58:57;;;;;;;;;2.50;1.00;;;;;-143.90;100.00;75986.84;4957391;28;102680;-73
2023/10/09 09:01:24;;;;;;;;;3.75;3.00;;;;;-143.90;100.00;75970.31;4954653;28;102880;-73
2023/10/09 09:03:56;;;;;;;;;3.00;3.00;;;;;-143.90;100.00;75949.63;4960110;28;108733;-72
2023/10/09 09:06:23;;;;;;;;;2.50;2.50;;;;;-143.90;100.00;75949.63;4947507;28;102251;-73
2023/10/09 09:08:59;;;;;;;;;2.50;2.00;;;;;-143.90;100.00;75947.56;4957225;28;102239;-73
2023/10/09 09:11:30;;;;;;;;;2.25;1.25;;;;;-143.90;100.00;75959.97;4951646;28;102282;-73
2023/10/09 09:14:12;;;;;;;;;2.00;1.00;;;;;-143.90;100.00;75953.78;4954587;28;108731;-74
2023/10/09 09:16:44;;;;;;;;;2.00;2.00;;;;;-143.90;100.00;75955.84;4957181;28;102538;-73
2023/10/09 09:19:17;;;;;;;;;1.00;0.00;;;;;-143.90;100.00;75964.13;4956283;28;102290;-73
2023/10/09 09:21:59;;;;;;;;;1.50;1.00;;;;;-143.90;100.00;75959.97;4958604;28;102476;-73
2023/10/09 09:27:20;;;;;;;;;1.00;0.50;;;;;-143.90;100.00;75935.16;4961151;28;102959;-73
2023/10/09 09:29:53;;;;;;;;;0.75;0.75;;;;;-143.90;100.00;75926.88;4955119;28;102372;-72
2023/10/09 09:32:38;;;;;;;;;1.00;0.25;;;;;-143.90;100.00;75939.28;4963115;28;102621;-72
2023/10/09 09:35:19;;;;;;;;;0.75;0.75;;;;;-143.90;100.00;75945.50;4957195;28;108395;-73
2023/10/09 09:37:54;;;;;;;;;2.00;1.00;;;;;-143.90;100.00;75945.50;4961080;28;102325;-74
2023/10/09 09:40:29;;;;;;;;;1.00;0.00;;;;;-143.90;100.00;75943.44;4953959;28;103518;-73
2023/10/09 09:43:05;;;;;;;;;0.75;0.50;;;;;-143.90;100.00;75949.63;4959335;28;102573;-74
2023/10/09 09:45:36;;;;;;;;;1.00;0.25;;;;;-143.90;100.00;75933.09;4954804;28;104263;-74
2023/10/09 09:48:06;;;;;;;;;0.50;0.00;;;;;-143.90;100.00;75920.69;4963708;28;102228;-73
2023/10/09 09:50:36;;;;;;;;;1.00;0.00;;;;;-143.90;100.00;75910.34;4958891;28;102189;-73
2023/10/09 09:53:08;;;;;;;;;0.00;0.00;;;;;-143.90;100.00;75908.28;4958832;28;102383;-74
2023/10/09 09:55:41;;;;;;;;;0.75;0.75;;;;;-143.90;100.00;75908.28;4958711;28;104060;-74
2023/10/09 09:58:18;;;;;;;;;0.00;0.00;;;;;-143.90;100.00;75891.75;4955526;28;102333;-73
2023/10/09 10:00:52;;;;;;;;;1.00;0.00;;;;;-143.90;100.00;75891.75;4959556;28;102427;-73
2023/10/09 10:03:26;;;;;;;;;1.00;0.00;;;;;-143.90;100.00;75893.81;4956554;28;102468;-73
2023/10/09 10:05:58;;;;;;;;;3.00;2.00;;;;;-143.90;100.00;75926.88;4952516;28;108640;-73
2023/10/09 10:08:32;;;;;;;;;2.75;1.00;;;;;-143.90;100.00;75922.75;4954650;28;101985;-74
2023/10/09 10:11:05;;;;;;;;;3.00;2.50;;;;;-143.90;100.00;75945.50;4950688;28;102318;-74
2023/10/09 10:13:53;;;;;;;;;1.25;1.25;;;;;-143.90;100.00;75933.09;4955780;28;102512;-74
2023/10/09 10:16:22;;;;;;;;;1.00;1.00;;;;;-143.90;100.00;75928.97;4959953;28;110088;-73
2023/10/09 10:19:06;;;;;;;;;0.00;0.00;;;;;-143.90;100.00;75928.97;4952802;28;102099;-73
2023/10/09 10:21:41;;;;;;;;;0.25;0.25;;;;;-143.90;100.00;75924.81;4958530;28;102303;-74
2023/10/09 10:24:30;;;;;;;;;1.25;1.25;;;;;-143.90;100.00;75914.47;4958476;28;102533;-74
2023/10/09 10:27:26;;;;;;;;;1.00;0.00;;;;;-143.90;100.00;75908.28;4936397;28;108679;-74
2023/10/09 10:30:31;;;;;;;;;0.00;0.00;;;;;-143.90;100.00;75895.88;4952743;28;102382;-74
2023/10/09 10:33:17;;;;;;;;;0.00;0.00;;;;;-143.90;100.00;75895.88;4916244;28;102451;-76
2023/10/09 10:38:24;;;;;;;;;0.00;0.00;;;;;-143.90;100.00;75891.75;4960580;28;103863;-74
2023/10/09 10:40:57;;;;;;;;;0.00;0.00;;;;;-143.90;100.00;75893.81;4953947;28;102386;-73
2023/10/09 10:43:47;;;;;;;;;0.00;0.00;;;;;-143.90;100.00;75897.94;4954087;28;102670;-74
2023/10/09 10:46:15;;;;;;;;;2.00;1.00;;;;;-143.90;100.00;75908.28;4957612;28;102430;-74
2023/10/09 10:48:47;;;;;;;;;3.00;1.00;;;;;-143.90;100.00;75928.97;4958895;28;103546;-74
2023/10/09 10:51:14;;;;;;;;;1.50;0.00;;;;;-143.90;100.00;75920.69;4960399;28;102419;-75
2023/10/09 10:53:59;;;;;;;;;0.00;0.00;;;;;-143.90;100.00;75924.81;4958180;28;102232;-74
2023/10/09 10:56:36;;;;;;;;;1.00;1.00;;;;;-143.90;100.00;75908.28;4958286;28;103526;-74
2023/10/09 11:01:57;;;;;;;;;0.75;0.25;;;;;-143.90;100.00;75885.53;4958777;28;102486;-73
2023/10/09 11:04:54;;;;;;;;;0.25;0.25;;;;;-143.90;100.00;75889.66;4954195;28;103225;-75
2023/10/09 11:12:37;;;;;;;;;0.00;0.00;;;;;-143.90;100.00;75858.66;4963001;28;101980;-73
2023/10/09 11:18:07;;;;;;;;;0.75;0.00;;;;;-143.90;100.00;75848.31;4961956;28;102594;-73
2023/10/09 11:20:38;;;;;;;;;1.00;1.00;;;;;-143.90;100.00;75844.19;4951666;28;108455;-74
2023/10/09 11:25:49;;;;;;;;;0.00;0.00;;;;;-143.90;100.00;75837.97;4953610;28;102317;-74
2023/10/09 11:28:31;;;;;;;;;0.75;0.75;;;;;-143.90;100.00;75844.19;4958831;28;102289;-74
2023/10/09 11:31:11;;;;;;;;;1.00;1.00;;;;;-143.90;100.00;75846.25;4948558;28;108614;-75
2023/10/09 11:33:51;;;;;;;;;0.00;0.00;;;;;-143.90;100.00;75831.78;4958485;28;102489;-74
2023/10/09 11:36:31;;;;;;;;;1.00;0.00;;;;;-143.90;100.00;75833.84;4952802;28;103149;-74
2023/10/09 11:39:14;;;;;;;;;0.00;0.00;;;;;-143.90;100.00;75842.13;4957776;28;102600;-75
2023/10/09 11:41:44;;;;;;;;;0.00;0.00;;;;;-143.90;100.00;75846.25;4957362;28;104177;-74
2023/10/09 11:44:18;;;;;;;;;0.00;0.00;;;;;-143.90;100.00;75846.25;4956293;28;102414;-74
2023/10/09 11:52:38;;;;;;;;;1.00;1.00;;;;;-143.90;100.00;75811.09;4952024;28;108403;-75
2023/10/09 11:55:06;;;;;;;;;0.00;0.00;;;;;-143.90;100.00;75813.16;4956144;28;102378;-74
2023/10/09 11:57:34;;;;;;;;;3.00;1.75;;;;;-143.90;100.00;75829.72;4954934;28;102826;-73
2023/10/09 12:00:47;;;;;;;;;1.00;1.00;;;;;-143.90;100.00;75837.97;4957941;28;102469;-73
2023/10/09 12:02:54;;;;;;;;;2.50;2.50;;;;;-143.90;100.00;75864.84;4953998;28;108718;-74
2023/10/09 12:05:22;;;;;;;;;3.00;2.50;;;;;-143.90;100.00;75862.78;4952974;28;102251;-73
2023/10/09 12:07:57;;;;;;;;;3.00;2.50;;;;;-143.90;100.00;75866.94;4958342;28;102014;-73
2023/10/09 12:10:26;;;;;;;;;3.00;2.00;;;;;-143.90;100.00;75848.31;4954463;28;102659;-73
2023/10/09 12:12:53;;;;;;;;;3.25;3.00;;;;;-143.90;100.00;75844.19;4960237;28;109107;-73
2023/10/09 12:15:20;;;;;;;;;1.75;1.00;;;;;-143.90;100.00;75842.13;4952958;28;102485;-74
2023/10/09 12:17:47;;;;;;;;;0.25;0.25;;;;;-143.90;100.00;75840.03;4955144;28;102449;-73
2023/10/09 12:20:30;;;;;;;;;0.50;0.50;;;;;-143.90;100.00;75833.84;4957997;28;102295;-74
2023/10/09 12:23:04;;;;;;;;;0.75;0.75;;;;;-143.90;100.00;75827.63;4972718;28;108503;-74
2023/10/09 12:25:32;;;;;;;;;0.00;0.00;;;;;-143.90;100.00;75821.44;4954818;28;102424;-74
2023/10/09 12:28:01;;;;;;;;;0.25;0.25;;;;;-143.90;100.00;75821.44;4951771;28;102256;-75
2023/10/09 12:30:38;;;;;;;;;0.25;0.25;;;;;-143.90;100.00;75817.31;4960670;28;102512;-74
2023/10/09 12:33:07;;;;;;;;;1.00;1.00;;;;;-143.90;100.00;75802.81;4951196;28;108814;-74
2023/10/09 12:35:38;;;;;;;;;2.00;1.00;;;;;-143.90;100.00;75806.97;4958048;28;103167;-74
2023/10/09 12:38:10;;;;;;;;;1.00;1.00;;;;;-143.90;100.00;75825.56;4952261;28;102761;-74
2023/10/09 12:40:38;;;;;;;;;1.50;1.25;;;;;-143.90;100.00;75809.03;4961570;28;103513;-74
2023/10/09 12:43:05;;;;;;;;;1.00;1.00;;;;;-143.90;100.00;75796.63;4954696;28;104035;-73
2023/10/09 12:45:33;;;;;;;;;1.00;1.00;;;;;-143.90;100.00;75792.50;4953180;28;102628;-74
2023/10/09 12:48:03;;;;;;;;;1.25;1.25;;;;;-143.90;100.00;75813.16;4955735;28;102373;-74
2023/10/09 12:50:33;;;;;;;;;0.75;0.25;;;;;-143.90;100.00;75804.91;4959155;28;102480;-74
2023/10/09 12:53:07;;;;;;;;;1.00;0.50;;;;;-143.90;100.00;75796.63;4956393;28;104045;-74
2023/10/09 12:55:44;;;;;;;;;1.00;0.00;;;;;-143.90;100.00;75794.56;4940934;28;102788;-74
2023/10/09 12:58:15;;;;;;;;;1.00;0.00;;;;;-143.90;100.00;75790.41;4947966;28;102272;-74
2023/10/09 13:00:49;;;;;;;;;1.00;1.00;;;;;-143.90;100.00;75794.56;4953377;28;102305;-75
2023/10/09 13:03:17;;;;;;;;;0.00;0.00;;;;;-143.90;100.00;75794.56;4962011;28;104068;-74
2023/10/09 13:05:54;;;;;;;;;3.00;1.00;;;;;-143.90;100.00;75802.81;4953421;28;102232;-74
2023/10/09 13:08:35;;;;;;;;;2.00;1.00;;;;;-143.90;100.00;75796.63;4960877;28;102083;-74
2023/10/09 13:11:16;;;;;;;;;3.00;3.00;;;;;-143.90;100.00;75809.03;4955177;28;102589;-74
2023/10/09 13:13:50;;;;;;;;;4.25;3.00;;;;;-143.90;100.00;75796.63;4961791;28;103991;-75
2023/10/09 13:16:24;;;;;;;;;2.25;2.00;;;;;-143.90;100.00;75788.34;4956066;28;103244;-74
2023/10/09 13:19:05;;;;;;;;;0.75;0.00;;;;;-143.90;100.00;75786.28;4958264;28;102008;-73
2023/10/09 13:21:32;;;;;;;;;1.50;1.00;;;;;-143.90;100.00;75780.09;4955871;28;102439;-75
2023/10/09 13:24:00;;;;;;;;;2.00;0.00;;;;;-143.90;100.00;75771.81;4941305;28;104170;-75
2023/10/09 13:26:30;;;;;;;;;0.00;0.00;;;;;-143.90;100.00;75763.53;4960893;28;102321;-75
2023/10/09 13:29:01;;;;;;;;;0.00;0.00;;;;;-143.90;100.00;75751.13;4953615;28;102404;-75
2023/10/09 13:31:32;;;;;;;;;1.00;1.00;;;;;-143.90;100.00;75744.94;4962598;28;102110;-76
2023/10/09 13:34:00;;;;;;;;;0.00;0.00;;;;;-143.90;100.00;75740.78;4954506;28;108816;-75
2023/10/09 13:36:37;;;;;;;;;2.00;2.00;;;;;-143.90;100.00;75744.94;4962661;28;102253;-75
2023/10/09 13:39:24;;;;;;;;;0.75;0.00;;;;;-143.90;100.00;75753.19;4953400;28;103640;-75
2023/10/09 13:41:59;;;;;;;;;2.00;1.00;;;;;-143.90;100.00;75747.00;4963623;28;102389;-75
2023/10/09 13:44:28;;;;;;;;;1.00;1.00;;;;;-143.90;100.00;75740.78;4956320;28;108902;-74
2023/10/09 13:47:05;;;;;;;;;0.00;0.00;;;;;-143.90;100.00;75738.72;4959356;28;102452;-74
2023/10/09 13:49:34;;;;;;;;;1.75;1.75;;;;;-143.90;100.00;75751.13;4954850;28;107680;-75
2023/10/09 13:52:02;;;;;;;;;1.50;1.50;;;;;-143.90;100.00;75757.34;4960419;28;102365;-75
2023/10/09 13:57:04;;;;;;;;;3.50;3.50;;;;;-143.90;100.00;75804.91;4953336;28;102510;-75
2023/10/09 13:59:34;;;;;;;;;3.00;2.50;;;;;-143.90;100.00;75788.34;4961049;28;102085;-74
2023/10/09 14:02:09;;;;;;;;;6.25;3.00;;;;;-143.90;100.00;75809.03;4952938;28;102510;-74
2023/10/09 14:04:36;;;;;;;;;2.75;2.00;;;;;-143.90;100.00;75792.50;4956641;28;104125;-74
2023/10/09 14:07:05;;;;;;;;;1.50;0.75;;;;;-143.90;100.00;75782.16;4953514;28;102598;-73
2023/10/09 14:10:25;;;;;;;;;1.50;1.00;;;;;-143.90;100.00;75771.81;4954807;28;106054;-74
2023/10/09 14:12:21;;;;;;;;;0.50;0.50;;;;;-143.90;100.00;75757.34;4947943;28;102304;-74
2023/10/09 14:14:48;;;;;;;;;1.00;1.00;;;;;-143.90;100.00;75742.88;4955929;28;103987;-74
2023/10/09 14:17:23;;;;;;;;;1.00;0.00;;;;;-143.90;100.00;75732.53;4957413;28;102383;-74
2023/10/09 14:19:52;;;;;;;;;1.00;0.00;;;;;-143.90;100.00;75732.53;4956854;28;102225;-75
2023/10/09 14:22:24;;;;;;;;;2.00;1.00;;;;;-143.90;100.00;75730.47;4962124;28;102511;-73
2023/10/09 14:24:56;;;;;;;;;0.75;0.75;;;;;-143.90;100.00;75730.47;4958047;28;104187;-74
2023/10/09 14:27:26;;;;;;;;;1.00;0.00;;;;;-143.90;100.00;75730.47;4954707;28;102433;-74